sensor_id;sensor_type;location;lat;lon;timestamp;pressure;altitude;pressure_sealevel;temperature;humidity
9077;BME280;4574;51.072;17.174;2024-02-04T00:00:29;100165.81;;;9.20;100.00
9077;BME280;4574;51.072;17.174;2024-02-04T00:02:59;100154.56;;;9.18;100.00
9077;BME280;4574;51.072;17.174;2024-02-04T00:05:28;100157.47;;;9.15;100.00
9077;BME280;4574;51.072;17.174;2024-02-04T00:07:58;100146.91;;;9.15;100.00
9077;BME280;4574;51.072;17.174;2024-02-04T00:10:27;100143.56;;;9.13;100.00
9077;BME280;4574;51.072;17.174;2024-02-04T00:12:55;100123.69;;;9.09;100.00
9077;BME280;4574;51.072;17.174;2024-02-04T00:15:24;100152.88;;;9.07;100.00
9077;BME280;4574;51.072;17.174;2024-02-04T00:17:55;100147.06;;;9.04;100.00
9077;BME280;4574;51.072;17.174;2024-02-04T00:20:24;100160.25;;;9.04;100.00
9077;BME280;4574;51.072;17.174;2024-02-04T00:22:54;100146.19;;;9.03;100.00
9077;BME280;4574;51.072;17.174;2024-02-04T00:25:23;100151.91;;;8.99;100.00
9077;BME280;4574;51.072;17.174;2024-02-04T00:27:52;100154.56;;;8.99;100.00
9077;BME280;4574;51.072;17.174;2024-02-04T00:30:21;100163.03;;;8.93;100.00
9077;BME280;4574;51.072;17.174;2024-02-04T00:32:49;100142.19;;;8.90;100.00
9077;BME280;4574;51.072;17.174;2024-02-04T00:35:19;100149.41;;;8.88;100.00
9077;BME280;4574;51.072;17.174;2024-02-04T00:37:48;100139.13;;;8.85;100.00
9077;BME280;4574;51.072;17.174;2024-02-04T00:40:17;100148.72;;;8.86;100.00
9077;BME280;4574;51.072;17.174;2024-02-04T00:42:45;100144.41;;;8.85;100.00
9077;BME280;4574;51.072;17.174;2024-02-04T00:45:14;100139.13;;;8.85;100.00
9077;BME280;4574;51.072;17.174;2024-02-04T00:47:43;100139.81;;;8.87;100.00
9077;BME280;4574;51.072;17.174;2024-02-04T00:50:11;100163.56;;;8.87;100.00
9077;BME280;4574;51.072;17.174;2024-02-04T00:52:41;100157.72;;;8.83;100.00
9077;BME280;4574;51.072;17.174;2024-02-04T00:55:10;100157.59;;;8.85;100.00
9077;BME280;4574;51.072;17.174;2024-02-04T00:57:38;100149.38;;;8.78;100.00
9077;BME280;4574;51.072;17.174;2024-02-04T01:00:08;100145.66;;;8.81;100.00
9077;BME280;4574;51.072;17.174;2024-02-04T01:02:37;100156.31;;;8.79;100.00
9077;BME280;4574;51.072;17.174;2024-02-04T01:05:06;100149.53;;;8.77;100.00
9077;BME280;4574;51.072;17.174;2024-02-04T01:07:35;100150.22;;;8.79;100.00
9077;BME280;4574;51.072;17.174;2024-02-04T01:10:06;100155.63;;;8.77;100.00
9077;BME280;4574;51.072;17.174;2024-02-04T01:12:36;100144.53;;;8.74;100.00
9077;BME280;4574;51.072;17.174;2024-02-04T01:15:05;100151.59;;;8.73;100.00
9077;BME280;4574;51.072;17.174;2024-02-04T01:17:34;100139.38;;;8.63;100.00
9077;BME280;4574;51.072;17.174;2024-02-04T01:20:03;100144.66;;;8.72;100.00
9077;BME280;4574;51.072;17.174;2024-02-04T01:22:32;100153.69;;;8.70;100.00
9077;BME280;4574;51.072;17.174;2024-02-04T01:25:01;100152.72;;;8.71;100.00
9077;BME280;4574;51.072;17.174;2024-02-04T01:27:31;100129.91;;;8.60;100.00
9077;BME280;4574;51.072;17.174;2024-02-04T01:29:59;100124.09;;;8.57;100.00
9077;BME280;4574;51.072;17.174;2024-02-04T01:32:28;100140.06;;;8.65;100.00
9077;BME280;4574;51.072;17.174;2024-02-04T01:34:56;100136.31;;;8.67;100.00
9077;BME280;4574;51.072;17.174;2024-02-04T01:37:25;100128.97;;;8.71;100.00
9077;BME280;4574;51.072;17.174;2024-02-04T01:39:53;100138.25;;;8.65;100.00
9077;BME280;4574;51.072;17.174;2024-02-04T01:42:22;100132.44;;;8.62;100.00
9077;BME280;4574;51.072;17.174;2024-02-04T01:44:52;100135.75;;;8.64;100.00
9077;BME280;4574;51.072;17.174;2024-02-04T01:47:20;100131.31;;;8.64;100.00
9077;BME280;4574;51.072;17.174;2024-02-04T01:49:49;100123.81;;;8.60;100.00
9077;BME280;4574;51.072;17.174;2024-02-04T01:52:18;100139.38;;;8.63;100.00
9077;BME280;4574;51.072;17.174;2024-02-04T01:54:46;100127.97;;;8.62;100.00
9077;BME280;4574;51.072;17.174;2024-02-04T01:57:16;100120.22;;;8.61;100.00
9077;BME280;4574;51.072;17.174;2024-02-04T01:59:45;100113.25;;;8.60;100.00
9077;BME280;4574;51.072;17.174;2024-02-04T02:02:17;100105.19;;;8.61;100.00
9077;BME280;4574;51.072;17.174;2024-02-04T02:04:46;100118.28;;;8.63;100.00
9077;BME280;4574;51.072;17.174;2024-02-04T02:07:15;100106.03;;;8.62;100.00
9077;BME280;4574;51.072;17.174;2024-02-04T02:09:45;100114.66;;;8.64;100.00
9077;BME280;4574;51.072;17.174;2024-02-04T02:12:16;100114.50;;;8.65;100.00
9077;BME280;4574;51.072;17.174;2024-02-04T02:14:49;100124.94;;;8.67;100.00
9077;BME280;4574;51.072;17.174;2024-02-04T02:17:25;100128.41;;;8.67;100.00
9077;BME280;4574;51.072;17.174;2024-02-04T02:20:02;100138.81;;;8.69;100.00
9077;BME280;4574;51.072;17.174;2024-02-04T02:22:39;100143.84;;;8.72;100.00
9077;BME280;4574;51.072;17.174;2024-02-04T02:25:16;100137.16;;;8.68;100.00
9077;BME280;4574;51.072;17.174;2024-02-04T02:27:49;100140.50;;;8.70;100.00
9077;BME280;4574;51.072;17.174;2024-02-04T02:30:18;100135.75;;;8.73;100.00
9077;BME280;4574;51.072;17.174;2024-02-04T02:32:48;100123.53;;;8.72;100.00
9077;BME280;4574;51.072;17.174;2024-02-04T02:35:17;100123.25;;;8.75;100.00
9077;BME280;4574;51.072;17.174;2024-02-04T02:37:51;100108.28;;;8.76;100.00
9077;BME280;4574;51.072;17.174;2024-02-04T02:40:29;100105.50;;;8.77;100.00
9077;BME280;4574;51.072;17.174;2024-02-04T02:43:02;100110.91;;;8.76;100.00
9077;BME280;4574;51.072;17.174;2024-02-04T02:45:31;100103.00;;;8.76;100.00
9077;BME280;4574;51.072;17.174;2024-02-04T02:48:00;100110.75;;;8.77;100.00
9077;BME280;4574;51.072;17.174;2024-02-04T02:50:29;100109.25;;;8.75;100.00
9077;BME280;4574;51.072;17.174;2024-02-04T02:52:58;100115.50;;;8.74;100.00
9077;BME280;4574;51.072;17.174;2024-02-04T02:55:28;100133.00;;;8.75;100.00
9077;BME280;4574;51.072;17.174;2024-02-04T02:57:56;100126.34;;;8.71;100.00
9077;BME280;4574;51.072;17.174;2024-02-04T03:00:25;100113.84;;;8.73;100.00
9077;BME280;4574;51.072;17.174;2024-02-04T03:02:53;100113.84;;;8.73;100.00
9077;BME280;4574;51.072;17.174;2024-02-04T03:05:22;100114.81;;;8.72;100.00
9077;BME280;4574;51.072;17.174;2024-02-04T03:07:50;100100.22;;;8.68;100.00
9077;BME280;4574;51.072;17.174;2024-02-04T03:10:19;100089.63;;;8.58;100.00
9077;BME280;4574;51.072;17.174;2024-02-04T03:12:49;100095.19;;;8.55;100.00
9077;BME280;4574;51.072;17.174;2024-02-04T03:15:17;100084.50;;;8.57;100.00
9077;BME280;4574;51.072;17.174;2024-02-04T03:17:46;100097.56;;;8.58;100.00
9077;BME280;4574;51.072;17.174;2024-02-04T03:20:14;100087.28;;;8.55;100.00
9077;BME280;4574;51.072;17.174;2024-02-04T03:22:43;100092.44;;;8.57;100.00
9077;BME280;4574;51.072;17.174;2024-02-04T03:25:13;100106.59;;;8.56;100.00
9077;BME280;4574;51.072;17.174;2024-02-04T03:27:42;100097.81;;;8.55;100.00
9077;BME280;4574;51.072;17.174;2024-02-04T03:30:13;100104.94;;;8.55;100.00
9077;BME280;4574;51.072;17.174;2024-02-04T03:32:42;100113.53;;;8.57;100.00
9077;BME280;4574;51.072;17.174;2024-02-04T03:35:13;100109.94;;;8.58;100.00
9077;BME280;4574;51.072;17.174;2024-02-04T03:37:42;100094.66;;;8.52;100.00
9077;BME280;4574;51.072;17.174;2024-02-04T03:40:11;100115.47;;;8.55;100.00
9077;BME280;4574;51.072;17.174;2024-02-04T03:42:40;100120.75;;;8.55;100.00
9077;BME280;4574;51.072;17.174;2024-02-04T03:45:09;100113.13;;;8.52;100.00
9077;BME280;4574;51.072;17.174;2024-02-04T03:47:39;100113.50;;;8.47;100.00
9077;BME280;4574;51.072;17.174;2024-02-04T03:50:09;100124.75;;;8.49;100.00
9077;BME280;4574;51.072;17.174;2024-02-04T03:52:37;100137.09;;;8.49;100.00
9077;BME280;4574;51.072;17.174;2024-02-04T03:55:06;100134.72;;;8.46;100.00
9077;BME280;4574;51.072;17.174;2024-02-04T03:57:35;100140.69;;;8.48;100.00
9077;BME280;4574;51.072;17.174;2024-02-04T04:00:04;100140.97;;;8.45;100.00
9077;BME280;4574;51.072;17.174;2024-02-04T04:02:33;100140.00;;;8.46;100.00
9077;BME280;4574;51.072;17.174;2024-02-04T04:05:04;100146.50;;;8.42;100.00
9077;BME280;4574;51.072;17.174;2024-02-04T04:07:33;100143.44;;;8.37;100.00
9077;BME280;4574;51.072;17.174;2024-02-04T04:10:01;100152.06;;;8.39;100.00
9077;BME280;4574;51.072;17.174;2024-02-04T04:12:30;100153.88;;;8.38;100.00
9077;BME280;4574;51.072;17.174;2024-02-04T04:14:59;100155.13;;;8.34;100.00
9077;BME280;4574;51.072;17.174;2024-02-04T04:17:28;100152.16;;;8.28;100.00
9077;BME280;4574;51.072;17.174;2024-02-04T04:19:57;100160.06;;;8.28;100.00
9077;BME280;4574;51.072;17.174;2024-02-04T04:22:27;100166.84;;;8.21;100.00
9077;BME280;4574;51.072;17.174;2024-02-04T04:24:56;100167.72;;;8.21;100.00
9077;BME280;4574;51.072;17.174;2024-02-04T04:27:24;100162.81;;;8.17;100.00
9077;BME280;4574;51.072;17.174;2024-02-04T04:29:53;100140.38;;;8.02;100.00
9077;BME280;4574;51.072;17.174;2024-02-04T04:32:21;100150.81;;;8.03;100.00
9077;BME280;4574;51.072;17.174;2024-02-04T04:34:50;100157.59;;;8.06;100.00
9077;BME280;4574;51.072;17.174;2024-02-04T04:37:18;100151.91;;;8.01;100.00
9077;BME280;4574;51.072;17.174;2024-02-04T04:39:48;100169.00;;;8.06;100.00
9077;BME280;4574;51.072;17.174;2024-02-04T04:42:17;100167.72;;;8.01;100.00
9077;BME280;4574;51.072;17.174;2024-02-04T04:44:45;100151.63;;;8.04;100.00
9077;BME280;4574;51.072;17.174;2024-02-04T04:47:15;100159.97;;;8.09;100.00
9077;BME280;4574;51.072;17.174;2024-02-04T04:49:43;100154.44;;;8.12;100.00
9077;BME280;4574;51.072;17.174;2024-02-04T04:52:12;100152.78;;;8.11;100.00
9077;BME280;4574;51.072;17.174;2024-02-04T04:54:41;100162.34;;;8.12;100.00
9077;BME280;4574;51.072;17.174;2024-02-04T04:57:11;100147.75;;;8.08;100.00
9077;BME280;4574;51.072;17.174;2024-02-04T04:59:40;100152.22;;;8.07;100.00
9077;BME280;4574;51.072;17.174;2024-02-04T05:02:08;100123.34;;;8.06;100.00
9077;BME280;4574;51.072;17.174;2024-02-04T05:04:37;100155.22;;;8.03;100.00
9077;BME280;4574;51.072;17.174;2024-02-04T05:07:06;100154.09;;;7.96;100.00
9077;BME280;4574;51.072;17.174;2024-02-04T05:09:35;100149.66;;;7.96;100.00
9077;BME280;4574;51.072;17.174;2024-02-04T05:12:04;100150.47;;;7.88;100.00
9077;BME280;4574;51.072;17.174;2024-02-04T05:14:34;100151.28;;;7.88;100.00
9077;BME280;4574;51.072;17.174;2024-02-04T05:17:03;100142.56;;;7.88;100.00
9077;BME280;4574;51.072;17.174;2024-02-04T05:19:31;100150.72;;;7.85;100.00
9077;BME280;4574;51.072;17.174;2024-02-04T05:22:00;100149.44;;;7.79;100.00
9077;BME280;4574;51.072;17.174;2024-02-04T05:24:28;100145.97;;;7.79;100.00
9077;BME280;4574;51.072;17.174;2024-02-04T05:26:57;100135.97;;;7.73;100.00
9077;BME280;4574;51.072;17.174;2024-02-04T05:29:25;100149.97;;;7.73;100.00
9077;BME280;4574;51.072;17.174;2024-02-04T05:31:55;100158.28;;;7.69;100.00
9077;BME280;4574;51.072;17.174;2024-02-04T05:34:24;100165.31;;;7.68;100.00
9077;BME280;4574;51.072;17.174;2024-02-04T05:36:53;100177.06;;;7.64;100.00
9077;BME280;4574;51.072;17.174;2024-02-04T05:39:21;100161.34;;;7.53;100.00
9077;BME280;4574;51.072;17.174;2024-02-04T05:41:51;100189.66;;;7.61;100.00
9077;BME280;4574;51.072;17.174;2024-02-04T05:44:19;100186.47;;;7.57;100.00
9077;BME280;4574;51.072;17.174;2024-02-04T05:46:47;100180.50;;;7.55;100.00
9077;BME280;4574;51.072;17.174;2024-02-04T05:49:17;100188.38;;;7.55;100.00
9077;BME280;4574;51.072;17.174;2024-02-04T05:51:46;100186.00;;;7.52;100.00
9077;BME280;4574;51.072;17.174;2024-02-04T05:54:15;100177.41;;;7.50;100.00
9077;BME280;4574;51.072;17.174;2024-02-04T05:56:43;100170.72;;;7.46;100.00
9077;BME280;4574;51.072;17.174;2024-02-04T05:59:12;100174.56;;;7.42;100.00
9077;BME280;4574;51.072;17.174;2024-02-04T06:01:40;100170.13;;;7.43;100.00
9077;BME280;4574;51.072;17.174;2024-02-04T06:04:09;100169.06;;;7.45;100.00
9077;BME280;4574;51.072;17.174;2024-02-04T06:06:39;100176.25;;;7.43;100.00
9077;BME280;4574;51.072;17.174;2024-02-04T06:09:08;100173.16;;;7.38;100.00
9077;BME280;4574;51.072;17.174;2024-02-04T06:11:37;100178.69;;;7.35;100.00
9077;BME280;4574;51.072;17.174;2024-02-04T06:14:05;100178.69;;;7.35;100.00
9077;BME280;4574;51.072;17.174;2024-02-04T06:16:34;100175.59;;;7.30;100.00
9077;BME280;4574;51.072;17.174;2024-02-04T06:19:02;100163.41;;;7.29;100.00
9077;BME280;4574;51.072;17.174;2024-02-04T06:21:31;100177.53;;;7.28;100.00
9077;BME280;4574;51.072;17.174;2024-02-04T06:24:01;100166.13;;;7.28;100.00
9077;BME280;4574;51.072;17.174;2024-02-04T06:26:30;100171.56;;;7.26;100.00
9077;BME280;4574;51.072;17.174;2024-02-04T06:28:58;100168.47;;;7.21;100.00
9077;BME280;4574;51.072;17.174;2024-02-04T06:31:27;100168.25;;;7.13;100.00
9077;BME280;4574;51.072;17.174;2024-02-04T06:33:55;100173.63;;;7.12;100.00
9077;BME280;4574;51.072;17.174;2024-02-04T06:36:24;100175.44;;;7.11;100.00
9077;BME280;4574;51.072;17.174;2024-02-04T06:38:53;100173.31;;;7.05;100.00
9077;BME280;4574;51.072;17.174;2024-02-04T06:41:23;100168.06;;;7.05;100.00
9077;BME280;4574;51.072;17.174;2024-02-04T06:43:51;100167.84;;;6.97;100.00
9077;BME280;4574;51.072;17.174;2024-02-04T06:46:26;100177.03;;;7.03;100.00
9077;BME280;4574;51.072;17.174;2024-02-04T06:48:55;100172.66;;;6.92;100.00
9077;BME280;4574;51.072;17.174;2024-02-04T06:51:24;100170.03;;;6.92;100.00
9077;BME280;4574;51.072;17.174;2024-02-04T06:53:53;100187.47;;;6.93;100.00
9077;BME280;4574;51.072;17.174;2024-02-04T06:56:23;100184.59;;;6.96;100.00
9077;BME280;4574;51.072;17.174;2024-02-04T06:58:52;100169.88;;;6.94;100.00
9077;BME280;4574;51.072;17.174;2024-02-04T07:01:21;100173.63;;;6.91;100.00
9077;BME280;4574;51.072;17.174;2024-02-04T07:03:50;100176.69;;;6.96;100.00
9077;BME280;4574;51.072;17.174;2024-02-04T07:06:18;100176.69;;;6.96;100.00
9077;BME280;4574;51.072;17.174;2024-02-04T07:08:47;100175.03;;;6.95;100.00
9077;BME280;4574;51.072;17.174;2024-02-04T07:11:16;100176.69;;;6.96;100.00
9077;BME280;4574;51.072;17.174;2024-02-04T07:13:46;100151.16;;;6.87;100.00
9077;BME280;4574;51.072;17.174;2024-02-04T07:16:15;100159.81;;;6.99;100.00
9077;BME280;4574;51.072;17.174;2024-02-04T07:18:44;100170.09;;;7.02;100.00
9077;BME280;4574;51.072;17.174;2024-02-04T07:21:12;100159.69;;;7.00;100.00
9077;BME280;4574;51.072;17.174;2024-02-04T07:23:41;100169.03;;;7.04;100.00
9077;BME280;4574;51.072;17.174;2024-02-04T07:26:10;100158.25;;;7.07;100.00
9077;BME280;4574;51.072;17.174;2024-02-04T07:28:39;100157.38;;;7.07;100.00
9077;BME280;4574;51.072;17.174;2024-02-04T07:31:09;100160.63;;;7.10;100.00
9077;BME280;4574;51.072;17.174;2024-02-04T07:33:37;100155.09;;;7.13;100.00
9077;BME280;4574;51.072;17.174;2024-02-04T07:36:06;100154.00;;;7.16;100.00
9077;BME280;4574;51.072;17.174;2024-02-04T07:38:35;100162.22;;;7.22;100.00
9077;BME280;4574;51.072;17.174;2024-02-04T07:41:03;100162.09;;;7.24;100.00
9077;BME280;4574;51.072;17.174;2024-02-04T07:43:32;100165.06;;;7.30;100.00
9077;BME280;4574;51.072;17.174;2024-02-04T07:46:02;100161.94;;;7.36;100.00
9077;BME280;4574;51.072;17.174;2024-02-04T07:48:33;100154.03;;;7.36;100.00
9077;BME280;4574;51.072;17.174;2024-02-04T07:51:00;100165.72;;;7.43;100.00
9077;BME280;4574;51.072;17.174;2024-02-04T07:53:29;100175.28;;;7.44;100.00
9077;BME280;4574;51.072;17.174;2024-02-04T07:55:57;100162.56;;;7.49;100.00
9077;BME280;4574;51.072;17.174;2024-02-04T07:58:26;100156.78;;;7.55;100.00
9077;BME280;4574;51.072;17.174;2024-02-04T08:00:54;100161.66;;;7.60;100.00
9077;BME280;4574;51.072;17.174;2024-02-04T08:03:23;100143.22;;;7.60;100.00
9077;BME280;4574;51.072;17.174;2024-02-04T08:05:53;100156.81;;;7.65;100.00
9077;BME280;4574;51.072;17.174;2024-02-04T08:08:22;100179.47;;;7.67;100.00
9077;BME280;4574;51.072;17.174;2024-02-04T08:10:50;100160.38;;;7.75;100.00
9077;BME280;4574;51.072;17.174;2024-02-04T08:13:19;100155.66;;;7.78;100.00
9077;BME280;4574;51.072;17.174;2024-02-04T08:15:47;100163.75;;;7.86;100.00
9077;BME280;4574;51.072;17.174;2024-02-04T08:18:16;100159.78;;;7.92;100.00
9077;BME280;4574;51.072;17.174;2024-02-04T08:20:44;100149.78;;;7.95;100.00
9077;BME280;4574;51.072;17.174;2024-02-04T08:23:15;100152.88;;;8.00;100.00
9077;BME280;4574;51.072;17.174;2024-02-04T08:25:43;100151.94;;;8.10;100.00
9077;BME280;4574;51.072;17.174;2024-02-04T08:28:12;100141.25;;;8.12;100.00
9077;BME280;4574;51.072;17.174;2024-02-04T08:30:40;100128.59;;;8.06;100.00
9077;BME280;4574;51.072;17.174;2024-02-04T08:33:09;100144.84;;;8.11;100.00
9077;BME280;4574;51.072;17.174;2024-02-04T08:35:37;100134.19;;;8.12;100.00
9077;BME280;4574;51.072;17.174;2024-02-04T08:38:06;100155.84;;;8.16;100.00
9077;BME280;4574;51.072;17.174;2024-02-04T08:40:36;100142.66;;;8.16;100.00
9077;BME280;4574;51.072;17.174;2024-02-04T08:43:04;100134.75;;;8.16;100.00
9077;BME280;4574;51.072;17.174;2024-02-04T08:45:33;100128.66;;;8.15;100.00
9077;BME280;4574;51.072;17.174;2024-02-04T08:48:01;100137.59;;;8.24;100.00
9077;BME280;4574;51.072;17.174;2024-02-04T08:50:31;100146.19;;;8.26;100.00
9077;BME280;4574;51.072;17.174;2024-02-04T08:52:59;100137.19;;;8.28;100.00
9077;BME280;4574;51.072;17.174;2024-02-04T08:55:28;100132.63;;;8.30;100.00
9077;BME280;4574;51.072;17.174;2024-02-04T08:57:57;100135.97;;;8.32;100.00
9077;BME280;4574;51.072;17.174;2024-02-04T09:00:25;100144.41;;;8.36;100.00
9077;BME280;4574;51.072;17.174;2024-02-04T09:02:54;100139.28;;;8.34;100.00
9077;BME280;4574;51.072;17.174;2024-02-04T09:05:22;100132.09;;;8.36;100.00
9077;BME280;4574;51.072;17.174;2024-02-04T09:07:51;100138.19;;;8.37;100.00
9077;BME280;4574;51.072;17.174;2024-02-04T09:10:22;100125.97;;;8.36;100.00
9077;BME280;4574;51.072;17.174;2024-02-04T09:12:50;100119.72;;;8.37;100.00
9077;BME280;4574;51.072;17.174;2024-02-04T09:15:20;100125.69;;;8.39;100.00
9077;BME280;4574;51.072;17.174;2024-02-04T09:17:49;100115.41;;;8.36;100.00
9077;BME280;4574;51.072;17.174;2024-02-04T09:20:18;100119.44;;;8.40;100.00
9077;BME280;4574;51.072;17.174;2024-02-04T09:22:46;100119.72;;;8.37;100.00
9077;BME280;4574;51.072;17.174;2024-02-04T09:25:15;100116.09;;;8.38;100.00
9077;BME280;4574;51.072;17.174;2024-02-04T09:27:44;100115.84;;;8.41;100.00
9077;BME280;4574;51.072;17.174;2024-02-04T09:30:13;100115.56;;;8.44;100.00
9077;BME280;4574;51.072;17.174;2024-02-04T09:32:43;100106.84;;;8.43;100.00
9077;BME280;4574;51.072;17.174;2024-02-04T09:35:12;100110.28;;;8.44;100.00
9077;BME280;4574;51.072;17.174;2024-02-04T09:37:42;100095.03;;;8.47;100.00
9077;BME280;4574;51.072;17.174;2024-02-04T09:40:11;100100.75;;;8.52;100.00
9077;BME280;4574;51.072;17.174;2024-02-04T09:42:40;100106.44;;;8.57;100.00
9077;BME280;4574;51.072;17.174;2024-02-04T09:45:09;100102.13;;;8.56;100.00
9077;BME280;4574;51.072;17.174;2024-02-04T09:47:40;100108.84;;;8.70;100.00
9077;BME280;4574;51.072;17.174;2024-02-04T09:50:11;100097.44;;;8.69;100.00
9077;BME280;4574;51.072;17.174;2024-02-04T09:52:48;100108.41;;;8.65;100.00
9077;BME280;4574;51.072;17.174;2024-02-04T09:55:19;100098.28;;;8.70;100.00
9077;BME280;4574;51.072;17.174;2024-02-04T09:57:48;100090.34;;;8.70;100.00
9077;BME280;4574;51.072;17.174;2024-02-04T10:00:19;100091.06;;;8.72;100.00
9077;BME280;4574;51.072;17.174;2024-02-04T10:02:48;100080.50;;;8.72;100.00
9077;BME280;4574;51.072;17.174;2024-02-04T10:05:18;100073.28;;;8.74;100.00
9077;BME280;4574;51.072;17.174;2024-02-04T10:07:47;100056.31;;;8.86;100.00
9077;BME280;4574;51.072;17.174;2024-02-04T10:10:15;100063.00;;;8.90;100.00
9077;BME280;4574;51.072;17.174;2024-02-04T10:12:44;100057.56;;;8.91;100.00
9077;BME280;4574;51.072;17.174;2024-02-04T10:15:13;100060.78;;;8.95;100.00
9077;BME280;4574;51.072;17.174;2024-02-04T10:17:45;100064.22;;;8.95;100.00
9077;BME280;4574;51.072;17.174;2024-02-04T10:20:14;100056.31;;;8.95;100.00
9077;BME280;4574;51.072;17.174;2024-02-04T10:22:48;100057.69;;;8.99;100.00
9077;BME280;4574;51.072;17.174;2024-02-04T10:25:20;100051.72;;;8.97;100.00
9077;BME280;4574;51.072;17.174;2024-02-04T10:27:49;100052.84;;;8.95;100.00
9077;BME280;4574;51.072;17.174;2024-02-04T10:30:18;100053.53;;;8.97;100.00
9077;BME280;4574;51.072;17.174;2024-02-04T10:32:50;100049.94;;;8.98;100.00
9077;BME280;4574;51.072;17.174;2024-02-04T10:35:20;100041.16;;;8.97;100.00
9077;BME280;4574;51.072;17.174;2024-02-04T10:37:52;100031.56;;;8.96;100.00
9077;BME280;4574;51.072;17.174;2024-02-04T10:40:20;100035.47;;;9.02;100.00
9077;BME280;4574;51.072;17.174;2024-02-04T10:42:50;100031.28;;;8.99;100.00
9077;BME280;4574;51.072;17.174;2024-02-04T10:45:20;100034.78;;;9.00;100.00
9077;BME280;4574;51.072;17.174;2024-02-04T10:47:56;100026.56;;;9.03;100.00
9077;BME280;4574;51.072;17.174;2024-02-04T10:50:25;100010.03;;;9.01;100.00
9077;BME280;4574;51.072;17.174;2024-02-04T10:52:58;100008.22;;;9.11;100.00
9077;BME280;4574;51.072;17.174;2024-02-04T10:55:32;100013.75;;;9.17;100.00
9077;BME280;4574;51.072;17.174;2024-02-04T10:58:08;100009.03;;;9.21;100.00
9077;BME280;4574;51.072;17.174;2024-02-04T11:00:38;99999.84;;;9.25;100.00
9077;BME280;4574;51.072;17.174;2024-02-04T11:03:08;99989.00;;;9.27;100.00
9077;BME280;4574;51.072;17.174;2024-02-04T11:05:39;99993.41;;;9.36;100.00
9077;BME280;4574;51.072;17.174;2024-02-04T11:08:12;99993.13;;;9.39;100.00
9077;BME280;4574;51.072;17.174;2024-02-04T11:10:41;99983.63;;;9.46;100.00
9077;BME280;4574;51.072;17.174;2024-02-04T11:13:10;99980.56;;;9.51;100.00
9077;BME280;4574;51.072;17.174;2024-02-04T11:15:40;99974.81;;;9.55;100.00
9077;BME280;4574;51.072;17.174;2024-02-04T11:18:35;99976.19;;;9.59;100.00
9077;BME280;4574;51.072;17.174;2024-02-04T11:21:18;99964.66;;;9.60;100.00
9077;BME280;4574;51.072;17.174;2024-02-04T11:24:04;99939.75;;;9.63;100.00
9077;BME280;4574;51.072;17.174;2024-02-04T11:26:37;99943.91;;;9.65;100.00
9077;BME280;4574;51.072;17.174;2024-02-04T11:29:08;99935.97;;;9.65;100.00
9077;BME280;4574;51.072;17.174;2024-02-04T11:31:38;99931.06;;;9.70;100.00
9077;BME280;4574;51.072;17.174;2024-02-04T11:34:08;99919.81;;;9.68;100.00
9077;BME280;4574;51.072;17.174;2024-02-04T11:36:38;99931.75;;;9.72;100.00
9077;BME280;4574;51.072;17.174;2024-02-04T11:39:17;99931.25;;;9.69;100.00
9077;BME280;4574;51.072;17.174;2024-02-04T11:41:48;99928.28;;;9.72;100.00
9077;BME280;4574;51.072;17.174;2024-02-04T11:44:21;99935.09;;;9.74;100.00
9077;BME280;4574;51.072;17.174;2024-02-04T11:46:50;99932.59;;;9.73;100.00
9077;BME280;4574;51.072;17.174;2024-02-04T11:49:20;99925.94;;;9.69;100.00
9077;BME280;4574;51.072;17.174;2024-02-04T11:51:52;99931.63;;;9.74;100.00
9077;BME280;4574;51.072;17.174;2024-02-04T11:54:23;99925.66;;;9.72;100.00
9077;BME280;4574;51.072;17.174;2024-02-04T11:56:52;99918.09;;;9.77;100.00
9077;BME280;4574;51.072;17.174;2024-02-04T11:59:22;99909.88;;;9.80;100.00
9077;BME280;4574;51.072;17.174;2024-02-04T12:01:53;99894.84;;;9.80;100.00
9077;BME280;4574;51.072;17.174;2024-02-04T12:04:22;99896.88;;;9.86;100.00
9077;BME280;4574;51.072;17.174;2024-02-04T12:06:51;99897.13;;;9.93;100.00
9077;BME280;4574;51.072;17.174;2024-02-04T12:09:22;99896.97;;;9.94;100.00
9077;BME280;4574;51.072;17.174;2024-02-04T12:11:51;99885.41;;;9.95;100.00
9077;BME280;4574;51.072;17.174;2024-02-04T12:14:22;99886.75;;;9.99;100.00
9077;BME280;4574;51.072;17.174;2024-02-04T12:16:50;99890.00;;;10.03;100.00
9077;BME280;4574;51.072;17.174;2024-02-04T12:19:19;99870.63;;;10.02;100.00
9077;BME280;4574;51.072;17.174;2024-02-04T12:21:48;99865.59;;;10.09;100.00
9077;BME280;4574;51.072;17.174;2024-02-04T12:24:17;99848.25;;;10.14;100.00
9077;BME280;4574;51.072;17.174;2024-02-04T12:26:47;99841.69;;;10.18;100.00
9077;BME280;4574;51.072;17.174;2024-02-04T12:29:16;99849.03;;;10.24;100.00
9077;BME280;4574;51.072;17.174;2024-02-04T12:31:44;99854.00;;;10.27;100.00
9077;BME280;4574;51.072;17.174;2024-02-04T12:34:13;99845.91;;;10.29;100.00
9077;BME280;4574;51.072;17.174;2024-02-04T12:36:42;99833.22;;;10.32;100.00
9077;BME280;4574;51.072;17.174;2024-02-04T12:39:15;99837.53;;;10.33;100.00
9077;BME280;4574;51.072;17.174;2024-02-04T12:41:52;99823.00;;;10.37;100.00
9077;BME280;4574;51.072;17.174;2024-02-04T12:44:20;99826.47;;;10.38;100.00
9077;BME280;4574;51.072;17.174;2024-02-04T12:46:52;99808.78;;;10.38;100.00
9077;BME280;4574;51.072;17.174;2024-02-04T12:49:21;99803.19;;;10.41;100.00
9077;BME280;4574;51.072;17.174;2024-02-04T12:51:50;99810.13;;;10.42;100.00
9077;BME280;4574;51.072;17.174;2024-02-04T12:54:21;99800.06;;;10.46;100.00
9077;BME280;4574;51.072;17.174;2024-02-04T12:56:50;99790.00;;;10.49;100.00
9077;BME280;4574;51.072;17.174;2024-02-04T12:59:27;99784.72;;;10.49;100.00
9077;BME280;4574;51.072;17.174;2024-02-04T13:01:58;99772.16;;;10.51;100.00
9077;BME280;4574;51.072;17.174;2024-02-04T13:04:33;99776.59;;;10.51;100.00
9077;BME280;4574;51.072;17.174;2024-02-04T13:07:06;99765.69;;;10.54;100.00
9077;BME280;4574;51.072;17.174;2024-02-04T13:09:37;99781.56;;;10.54;100.00
9077;BME280;4574;51.072;17.174;2024-02-04T13:12:07;99779.59;;;10.56;100.00